Time;durP1;ratioP1;P1;durP2;ratioP2;P2;SDS_P1;SDS_P2;PMS_P1;PMS_P2;Temp;Humidity;BMP_temperature;BMP_pressure;BME280_temperature;BME280_humidity;BME280_pressure;Samples;Min_cycle;Max_cycle;Signal;HPM_P1;HPM_P2
2021/08/27 00:01:53;;;;;;;;;;;12.30;99.90;;;;;;5034035;28;19925;-73
2021/08/27 00:04:25;;;;;;;;;;;12.30;99.90;;;;;;5000706;28;19959;-72
2021/08/27 00:06:57;;;;;;;;;;;12.30;99.90;;;;;;5015947;28;20015;-72
2021/08/27 00:09:23;;;;;;;;;;;12.20;99.90;;;;;;5016303;28;20036;-73
2021/08/27 00:11:51;;;;;;;;;;;12.20;99.90;;;;;;5016073;28;19964;-73
2021/08/27 00:14:22;;;;;;;;;;;12.20;99.90;;;;;;5016778;28;20023;-72
2021/08/27 00:16:54;;;;;;;;;;;12.20;99.90;;;;;;5016108;28;20017;-72
2021/08/27 00:19:26;;;;;;;;;;;12.20;99.90;;;;;;5015826;28;19936;-72
2021/08/27 00:21:58;;;;;;;;;;;12.10;99.90;;;;;;5033765;28;19925;-73
2021/08/27 00:24:29;;;;;;;;;;;12.10;99.90;;;;;;5016672;28;19925;-73
2021/08/27 00:26:56;;;;;;;;;;;12.10;99.90;;;;;;5015493;28;20310;-72
2021/08/27 00:29:27;;;;;;;;;;;12.10;99.90;;;;;;5015428;28;20028;-73
2021/08/27 00:31:54;;;;;;;;;;;12.10;99.90;;;;;;5033460;28;20019;-72
2021/08/27 00:34:21;;;;;;;;;;;12.10;99.90;;;;;;5015618;28;20015;-73
2021/08/27 00:36:52;;;;;;;;;;;12.10;99.90;;;;;;4999934;28;20003;-73
2021/08/27 00:39:24;;;;;;;;;;;12.10;99.90;;;;;;5016316;28;20027;-72
2021/08/27 00:41:51;;;;;;;;;;;12.10;99.90;;;;;;5015324;28;20326;-72
2021/08/27 00:44:22;;;;;;;;;;;12.10;99.90;;;;;;5015365;28;19925;-73
2021/08/27 00:46:49;;;;;;;;;;;12.10;99.90;;;;;;5015282;28;20028;-73
2021/08/27 00:49:20;;;;;;;;;;;12.10;99.90;;;;;;5033048;28;20031;-73
2021/08/27 00:51:52;;;;;;;;;;;12.10;99.90;;;;;;5033057;28;19925;-72
2021/08/27 00:54:24;;;;;;;;;;;12.20;99.90;;;;;;5015434;28;20021;-73
2021/08/27 00:56:56;;;;;;;;;;;12.20;99.90;;;;;;5015211;28;19929;-72
2021/08/27 00:59:28;;;;;;;;;;;12.20;99.90;;;;;;4998969;28;19964;-72
2021/08/27 01:02:00;;;;;;;;;;;12.20;99.90;;;;;;5014461;28;20387;-72
2021/08/27 01:04:27;;;;;;;;;;;12.20;99.90;;;;;;5014634;28;20015;-72
2021/08/27 01:07:03;;;;;;;;;;;12.20;99.90;;;;;;5014084;28;19929;-73
2021/08/27 01:09:29;;;;;;;;;;;12.20;99.90;;;;;;5014261;28;20040;-72
2021/08/27 01:12:05;;;;;;;;;;;12.20;99.90;;;;;;5032068;28;20015;-72
2021/08/27 01:14:57;;;;;;;;;;;12.20;99.90;;;;;;5015303;28;20024;-72
2021/08/27 01:17:50;;;;;;;;;;;12.20;99.90;;;;;;5031389;28;20024;-72
2021/08/27 01:20:48;;;;;;;;;;;12.20;99.90;;;;;;4998233;28;19979;-73
2021/08/27 01:23:21;;;;;;;;;;;12.20;99.90;;;;;;4992810;28;20448;-73
2021/08/27 01:25:54;;;;;;;;;;;12.20;99.90;;;;;;5014373;28;20012;-73
2021/08/27 01:28:22;;;;;;;;;;;12.20;99.90;;;;;;5014641;28;20028;-73
2021/08/27 01:30:59;;;;;;;;;;;12.20;99.90;;;;;;5015103;28;19925;-73
2021/08/27 01:33:32;;;;;;;;;;;12.30;99.90;;;;;;5013952;28;19925;-73
2021/08/27 01:36:05;;;;;;;;;;;12.30;99.90;;;;;;5013620;28;19925;-72
2021/08/27 01:38:33;;;;;;;;;;;12.30;99.90;;;;;;5013954;28;19994;-73
2021/08/27 01:41:07;;;;;;;;;;;12.40;99.90;;;;;;5031788;28;20225;-72
2021/08/27 01:43:40;;;;;;;;;;;12.40;99.90;;;;;;5014802;28;20028;-72
2021/08/27 01:46:12;;;;;;;;;;;12.40;99.90;;;;;;4998560;28;19925;-74
2021/08/27 01:48:45;;;;;;;;;;;12.40;99.90;;;;;;5014472;28;20016;-73
2021/08/27 01:51:17;;;;;;;;;;;12.40;99.90;;;;;;4998720;28;20035;-73
2021/08/27 01:53:49;;;;;;;;;;;12.40;99.90;;;;;;5014026;28;20290;-72
2021/08/27 01:56:16;;;;;;;;;;;12.40;99.90;;;;;;5014094;28;19955;-73
2021/08/27 01:58:43;;;;;;;;;;;12.30;99.90;;;;;;5014273;28;20341;-73
2021/08/27 02:01:11;;;;;;;;;;;12.30;99.90;;;;;;5014100;28;19968;-73
2021/08/27 02:03:44;;;;;;;;;;;12.30;99.90;;;;;;5015178;28;19925;-75
2021/08/27 02:06:10;;;;;;;;;;;12.20;99.90;;;;;;5031814;28;19957;-73
2021/08/27 02:08:42;;;;;;;;;;;12.30;99.90;;;;;;5031817;28;19925;-73
2021/08/27 02:11:14;;;;;;;;;;;12.20;99.90;;;;;;5033583;28;20303;-72
2021/08/27 02:13:41;;;;;;;;;;;12.20;99.90;;;;;;5035785;28;20455;-72
2021/08/27 02:16:09;;;;;;;;;;;12.20;99.90;;;;;;5035394;28;20359;-75
2021/08/27 02:18:41;;;;;;;;;;;12.10;99.90;;;;;;5018156;28;20276;-72
2021/08/27 02:21:13;;;;;;;;;;;12.10;99.90;;;;;;5035885;28;19925;-72
2021/08/27 02:23:46;;;;;;;;;;;12.10;99.90;;;;;;5018095;28;20020;-72
2021/08/27 02:26:18;;;;;;;;;;;12.10;99.90;;;;;;5035297;28;19929;-73
2021/08/27 02:28:49;;;;;;;;;;;12.10;99.90;;;;;;5035776;28;20032;-73
2021/08/27 02:31:16;;;;;;;;;;;12.10;99.90;;;;;;5018240;28;20380;-72
2021/08/27 02:33:48;;;;;;;;;;;12.10;99.90;;;;;;5017790;28;20503;-72
2021/08/27 02:36:21;;;;;;;;;;;12.10;99.90;;;;;;5035184;28;20272;-72
2021/08/27 02:38:54;;;;;;;;;;;12.10;99.90;;;;;;5002001;28;19951;-72
2021/08/27 02:41:26;;;;;;;;;;;12.10;99.90;;;;;;5018536;28;20020;-72
2021/08/27 02:43:57;;;;;;;;;;;12.00;99.90;;;;;;5035377;28;20012;-74
2021/08/27 02:46:24;;;;;;;;;;;12.00;99.90;;;;;;5017560;28;20017;-72
2021/08/27 02:48:56;;;;;;;;;;;12.10;99.90;;;;;;5017522;28;19929;-73
2021/08/27 02:51:32;;;;;;;;;;;12.10;99.90;;;;;;5035453;28;19988;-72
2021/08/27 02:54:05;;;;;;;;;;;12.10;99.90;;;;;;5018511;28;19925;-72
2021/08/27 02:56:35;;;;;;;;;;;12.10;99.90;;;;;;5013033;28;19961;-72
2021/08/27 02:59:02;;;;;;;;;;;12.10;99.90;;;;;;5017477;28;20035;-72
2021/08/27 03:01:37;;;;;;;;;;;12.10;99.90;;;;;;5018200;28;19924;-72
2021/08/27 03:04:18;;;;;;;;;;;12.10;99.90;;;;;;5001801;28;19931;-73
2021/08/27 03:07:06;;;;;;;;;;;12.10;99.90;;;;;;5017147;28;19925;-72
2021/08/27 03:09:41;;;;;;;;;;;12.10;99.90;;;;;;5017077;28;20019;-72
2021/08/27 03:12:15;;;;;;;;;;;12.10;99.90;;;;;;5017102;28;20487;-72
2021/08/27 03:14:44;;;;;;;;;;;12.10;99.90;;;;;;5017285;28;20008;-74
2021/08/27 03:17:15;;;;;;;;;;;12.10;99.90;;;;;;5000563;28;19947;-72
2021/08/27 03:20:06;;;;;;;;;;;12.10;99.90;;;;;;5017014;28;20028;-72
2021/08/27 03:22:56;;;;;;;;;;;12.00;99.90;;;;;;5034277;28;19929;-72
2021/08/27 03:25:28;;;;;;;;;;;11.90;99.90;;;;;;5034452;28;19929;-73
2021/08/27 03:28:03;;;;;;;;;;;11.90;99.90;;;;;;5016847;28;19953;-72
2021/08/27 03:30:35;;;;;;;;;;;11.90;99.90;;;;;;5016785;28;20032;-72
2021/08/27 03:33:07;;;;;;;;;;;11.90;99.90;;;;;;5034463;28;19980;-73
2021/08/27 03:35:39;;;;;;;;;;;11.90;99.90;;;;;;5017456;28;19999;-72
2021/08/27 03:38:12;;;;;;;;;;;11.90;99.90;;;;;;5034375;28;20036;-72
2021/08/27 03:40:45;;;;;;;;;;;11.90;99.90;;;;;;5017449;28;19929;-74
2021/08/27 03:43:17;;;;;;;;;;;11.90;99.90;;;;;;5016535;28;19925;-73
2021/08/27 03:45:44;;;;;;;;;;;11.90;99.90;;;;;;5033990;28;20019;-72
2021/08/27 03:48:11;;;;;;;;;;;11.90;99.90;;;;;;5034162;28;19925;-73
2021/08/27 03:50:43;;;;;;;;;;;11.90;99.90;;;;;;5016016;28;20472;-73
2021/08/27 03:53:15;;;;;;;;;;;11.80;99.90;;;;;;5015742;28;19935;-73
2021/08/27 03:55:51;;;;;;;;;;;11.80;99.90;;;;;;5000014;28;19926;-73
2021/08/27 03:58:23;;;;;;;;;;;11.80;99.90;;;;;;5016552;28;19944;-74
2021/08/27 04:00:56;;;;;;;;;;;11.80;99.90;;;;;;5033470;28;19929;-73
2021/08/27 04:03:23;;;;;;;;;;;11.70;99.90;;;;;;5015822;28;20035;-73
2021/08/27 04:06:06;;;;;;;;;;;11.70;99.90;;;;;;5015190;28;20609;-75
2021/08/27 04:08:39;;;;;;;;;;;11.70;99.90;;;;;;5033110;28;19928;-73
2021/08/27 04:11:06;;;;;;;;;;;11.70;99.90;;;;;;5033187;28;20377;-73
2021/08/27 04:13:37;;;;;;;;;;;11.70;99.90;;;;;;5033069;28;19929;-73
2021/08/27 04:16:09;;;;;;;;;;;11.70;99.90;;;;;;4999658;28;19940;-72
2021/08/27 04:18:41;;;;;;;;;;;11.60;99.90;;;;;;4999511;28;20020;-73
2021/08/27 04:21:12;;;;;;;;;;;11.70;99.90;;;;;;5016063;28;20410;-73
2021/08/27 04:23:44;;;;;;;;;;;11.60;99.90;;;;;;5032876;28;19931;-75
2021/08/27 04:26:16;;;;;;;;;;;11.60;99.90;;;;;;5032870;28;19925;-74
2021/08/27 04:28:48;;;;;;;;;;;11.60;99.90;;;;;;4999363;28;19936;-73
2021/08/27 04:31:15;;;;;;;;;;;11.60;99.90;;;;;;5015305;28;20395;-74
2021/08/27 04:33:41;;;;;;;;;;;11.60;99.90;;;;;;5014284;28;20421;-73
2021/08/27 04:36:08;;;;;;;;;;;11.60;99.90;;;;;;5032973;28;20020;-73
2021/08/27 04:38:35;;;;;;;;;;;11.60;99.90;;;;;;5015547;28;20024;-73
2021/08/27 04:41:01;;;;;;;;;;;11.50;99.90;;;;;;5033003;28;20023;-74
2021/08/27 04:43:28;;;;;;;;;;;11.50;99.90;;;;;;5033135;28;20423;-74
2021/08/27 04:45:54;;;;;;;;;;;11.50;99.90;;;;;;5011773;28;19925;-73
2021/08/27 04:48:21;;;;;;;;;;;11.50;99.90;;;;;;5013011;28;20020;-73
2021/08/27 04:50:53;;;;;;;;;;;11.50;99.90;;;;;;5015387;28;20299;-73
2021/08/27 04:53:25;;;;;;;;;;;11.50;99.90;;;;;;5032987;28;19929;-73
2021/08/27 04:55:51;;;;;;;;;;;11.50;99.90;;;;;;5015160;28;20299;-73
2021/08/27 04:58:25;;;;;;;;;;;11.50;99.90;;;;;;5015019;28;19925;-74
2021/08/27 05:00:56;;;;;;;;;;;11.50;99.90;;;;;;5015080;28;20400;-74
2021/08/27 05:03:28;;;;;;;;;;;11.50;99.90;;;;;;5016111;28;20039;-73
2021/08/27 05:06:00;;;;;;;;;;;11.50;99.90;;;;;;5015501;28;19929;-74
2021/08/27 05:08:32;;;;;;;;;;;11.60;99.90;;;;;;5014884;28;20295;-73
2021/08/27 05:10:58;;;;;;;;;;;11.60;99.90;;;;;;5015127;28;20080;-74
2021/08/27 05:13:30;;;;;;;;;;;11.60;99.90;;;;;;5015095;28;19925;-73
2021/08/27 05:16:02;;;;;;;;;;;11.70;99.90;;;;;;5032501;28;20008;-74
2021/08/27 05:18:33;;;;;;;;;;;11.70;99.90;;;;;;5015708;28;20480;-73
2021/08/27 05:21:05;;;;;;;;;;;11.70;99.90;;;;;;5015483;28;20466;-74
2021/08/27 05:23:37;;;;;;;;;;;11.80;99.90;;;;;;5015515;28;19925;-73
2021/08/27 05:26:04;;;;;;;;;;;11.80;99.90;;;;;;5014733;28;19925;-73
2021/08/27 05:28:30;;;;;;;;;;;11.80;99.90;;;;;;5032277;28;20366;-74
2021/08/27 05:31:02;;;;;;;;;;;11.90;99.90;;;;;;5014738;28;19936;-73
2021/08/27 05:33:34;;;;;;;;;;;11.90;99.90;;;;;;5014562;28;19931;-73
2021/08/27 05:36:00;;;;;;;;;;;11.90;99.90;;;;;;5031895;28;20015;-73
2021/08/27 05:38:32;;;;;;;;;;;11.90;99.90;;;;;;5014513;28;19932;-73
2021/08/27 05:40:59;;;;;;;;;;;11.90;99.90;;;;;;5014592;28;20023;-73
2021/08/27 05:43:31;;;;;;;;;;;11.90;99.90;;;;;;5014493;28;20291;-73
2021/08/27 05:46:02;;;;;;;;;;;11.90;99.90;;;;;;5014262;28;20307;-73
2021/08/27 05:48:29;;;;;;;;;;;11.90;99.90;;;;;;5031888;28;20007;-73
2021/08/27 05:51:01;;;;;;;;;;;11.90;99.90;;;;;;5015255;28;20368;-73
2021/08/27 05:53:28;;;;;;;;;;;12.00;99.90;;;;;;4998105;28;20025;-72
2021/08/27 05:55:59;;;;;;;;;;;12.00;99.90;;;;;;5013991;28;19925;-73
2021/08/27 05:58:26;;;;;;;;;;;12.00;99.90;;;;;;5014293;28;19971;-74
2021/08/27 06:00:58;;;;;;;;;;;12.00;99.90;;;;;;5014267;28;19929;-73
2021/08/27 06:03:24;;;;;;;;;;;12.00;99.90;;;;;;4997950;28;20019;-73
2021/08/27 06:05:59;;;;;;;;;;;12.10;99.90;;;;;;5013901;28;19925;-73
2021/08/27 06:08:26;;;;;;;;;;;12.00;99.90;;;;;;5014672;28;19972;-73
2021/08/27 06:10:52;;;;;;;;;;;12.10;99.90;;;;;;5014391;28;20024;-72
2021/08/27 06:13:24;;;;;;;;;;;12.00;99.90;;;;;;5014346;28;20264;-73
2021/08/27 06:15:51;;;;;;;;;;;12.00;99.90;;;;;;5013845;28;20020;-73
2021/08/27 06:18:17;;;;;;;;;;;12.00;99.90;;;;;;5014206;28;20345;-73
2021/08/27 06:20:50;;;;;;;;;;;12.00;99.90;;;;;;4998427;28;20306;-73
2021/08/27 06:23:18;;;;;;;;;;;12.00;99.90;;;;;;5031621;28;19957;-73
2021/08/27 06:25:45;;;;;;;;;;;12.10;99.90;;;;;;5013749;28;19960;-73
2021/08/27 06:28:17;;;;;;;;;;;12.10;99.90;;;;;;5014062;28;19925;-73
2021/08/27 06:30:48;;;;;;;;;;;12.20;99.90;;;;;;5015040;28;20029;-74
2021/08/27 06:33:20;;;;;;;;;;;12.20;99.90;;;;;;5014852;28;19925;-73
2021/08/27 06:35:47;;;;;;;;;;;12.30;99.90;;;;;;5031480;28;20028;-74
2021/08/27 06:40:58;;;;;;;;;;;12.30;99.90;;;;;;5031929;28;20283;-73
2021/08/27 06:43:27;;;;;;;;;;;12.40;99.90;;;;;;5031493;28;20021;-74
2021/08/27 06:45:54;;;;;;;;;;;12.40;99.90;;;;;;5013645;28;20015;-73
2021/08/27 06:48:21;;;;;;;;;;;12.50;99.90;;;;;;5013824;28;20307;-73
2021/08/27 06:50:53;;;;;;;;;;;12.60;99.90;;;;;;5031297;28;20027;-73
2021/08/27 06:53:19;;;;;;;;;;;12.60;99.90;;;;;;5013933;28;20020;-72
2021/08/27 06:55:51;;;;;;;;;;;12.70;99.90;;;;;;5031113;28;20028;-73
2021/08/27 06:58:23;;;;;;;;;;;12.70;99.90;;;;;;5017083;28;20291;-73
2021/08/27 07:00:49;;;;;;;;;;;12.80;99.90;;;;;;5017579;28;20028;-73
2021/08/27 07:03:21;;;;;;;;;;;12.70;99.90;;;;;;5018138;28;19925;-73
2021/08/27 07:05:53;;;;;;;;;;;12.70;99.90;;;;;;5017604;28;20019;-74
2021/08/27 07:08:25;;;;;;;;;;;12.80;99.90;;;;;;5018204;28;20031;-73
2021/08/27 07:10:51;;;;;;;;;;;12.90;99.90;;;;;;5017168;28;19948;-74
2021/08/27 07:13:23;;;;;;;;;;;12.90;99.90;;;;;;5018103;28;20402;-74
2021/08/27 07:15:50;;;;;;;;;;;12.90;99.90;;;;;;5016698;28;20410;-73
2021/08/27 07:18:22;;;;;;;;;;;13.00;99.90;;;;;;5017930;28;19931;-73
2021/08/27 07:20:54;;;;;;;;;;;13.10;99.90;;;;;;5017995;28;20036;-73
2021/08/27 07:23:26;;;;;;;;;;;13.10;99.90;;;;;;5016845;28;20398;-73
2021/08/27 07:25:53;;;;;;;;;;;13.10;99.90;;;;;;5000303;28;20020;-74
2021/08/27 07:28:19;;;;;;;;;;;13.10;99.90;;;;;;5034269;28;20036;-73
2021/08/27 07:30:51;;;;;;;;;;;13.10;99.90;;;;;;5017786;28;20028;-73
2021/08/27 07:33:18;;;;;;;;;;;13.20;99.90;;;;;;5016755;28;19972;-73
2021/08/27 07:35:44;;;;;;;;;;;13.30;99.90;;;;;;5034285;28;20020;-72
2021/08/27 07:38:16;;;;;;;;;;;13.40;99.90;;;;;;5016674;28;20019;-73
2021/08/27 07:40:43;;;;;;;;;;;13.40;99.90;;;;;;5016708;28;20024;-74
2021/08/27 07:43:14;;;;;;;;;;;13.50;99.90;;;;;;5034304;28;20406;-72
2021/08/27 07:45:48;;;;;;;;;;;13.50;99.90;;;;;;5016359;28;19931;-73
2021/08/27 07:48:16;;;;;;;;;;;13.50;99.90;;;;;;5034230;28;20027;-73
2021/08/27 07:50:47;;;;;;;;;;;13.50;99.90;;;;;;5017471;28;19967;-74
2021/08/27 07:53:14;;;;;;;;;;;13.50;99.90;;;;;;5000006;28;20032;-73
2021/08/27 07:55:46;;;;;;;;;;;13.60;99.90;;;;;;5016170;28;19965;-72
2021/08/27 07:58:12;;;;;;;;;;;13.60;99.90;;;;;;5016229;28;19925;-73
2021/08/27 08:00:44;;;;;;;;;;;13.60;99.90;;;;;;5000785;28;19925;-72
2021/08/27 08:03:16;;;;;;;;;;;13.50;99.90;;;;;;5016253;28;20216;-72
2021/08/27 08:05:48;;;;;;;;;;;13.50;99.90;;;;;;5016926;28;19925;-72
2021/08/27 08:08:14;;;;;;;;;;;13.60;99.90;;;;;;5032750;28;20387;-72
2021/08/27 08:10:41;;;;;;;;;;;13.60;99.90;;;;;;5016302;28;19968;-73
2021/08/27 08:13:12;;;;;;;;;;;13.70;99.90;;;;;;5016942;28;20446;-72
2021/08/27 08:15:44;;;;;;;;;;;13.60;99.90;;;;;;5033602;28;20307;-72
2021/08/27 08:18:16;;;;;;;;;;;13.70;99.90;;;;;;5033536;28;19968;-72
2021/08/27 08:20:47;;;;;;;;;;;13.80;99.90;;;;;;5015963;28;19926;-73
2021/08/27 08:23:21;;;;;;;;;;;13.80;99.90;;;;;;5015817;28;20035;-72
2021/08/27 08:25:53;;;;;;;;;;;13.90;99.90;;;;;;5015479;28;20004;-72
2021/08/27 08:28:24;;;;;;;;;;;14.00;99.90;;;;;;5033336;28;19971;-72
2021/08/27 08:30:51;;;;;;;;;;;13.90;99.90;;;;;;5033304;28;20019;-73
2021/08/27 08:33:25;;;;;;;;;;;14.00;99.90;;;;;;5016193;28;20335;-73
2021/08/27 08:35:56;;;;;;;;;;;14.00;99.90;;;;;;5015365;28;19926;-74
2021/08/27 08:38:28;;;;;;;;;;;14.00;99.90;;;;;;5033291;28;19979;-72
2021/08/27 08:41:02;;;;;;;;;;;14.00;99.90;;;;;;5015465;28;19929;-73
2021/08/27 08:43:29;;;;;;;;;;;14.00;99.90;;;;;;5033068;28;19984;-72
2021/08/27 08:45:56;;;;;;;;;;;13.90;99.90;;;;;;5032819;28;19972;-72
2021/08/27 08:48:24;;;;;;;;;;;13.80;99.90;;;;;;5015542;28;19932;-72
2021/08/27 08:50:57;;;;;;;;;;;13.80;99.90;;;;;;5033198;28;19925;-74
2021/08/27 08:53:29;;;;;;;;;;;13.70;99.90;;;;;;5016255;28;20109;-72
2021/08/27 08:56:02;;;;;;;;;;;13.70;99.90;;;;;;4999401;28;19952;-72
2021/08/27 08:58:34;;;;;;;;;;;13.60;99.90;;;;;;5015016;28;19964;-73
2021/08/27 09:01:01;;;;;;;;;;;13.60;99.90;;;;;;5015523;28;20426;-72
2021/08/27 09:03:32;;;;;;;;;;;13.60;99.90;;;;;;5014983;28;19925;-73
2021/08/27 09:06:05;;;;;;;;;;;13.60;99.90;;;;;;5014887;28;19932;-72
2021/08/27 09:08:39;;;;;;;;;;;13.80;99.90;;;;;;4999599;28;20011;-73
2021/08/27 09:11:14;;;;;;;;;;;13.80;99.90;;;;;;5032698;28;19968;-72
2021/08/27 09:13:41;;;;;;;;;;;13.90;99.90;;;;;;5014984;28;19925;-73
2021/08/27 09:16:09;;;;;;;;;;;14.00;99.90;;;;;;5014853;28;20070;-73
2021/08/27 09:18:36;;;;;;;;;;;14.20;99.90;;;;;;5032494;28;19979;-73
2021/08/27 09:21:23;;;;;;;;;;;14.40;99.90;;;;;;5015014;28;20305;-72
2021/08/27 09:24:10;;;;;;;;;;;14.60;99.90;;;;;;5015639;28;20020;-72
2021/08/27 09:26:42;;;;;;;;;;;14.70;99.90;;;;;;5032815;28;19926;-73
2021/08/27 09:29:33;;;;;;;;;;;14.80;99.90;;;;;;5014349;28;20388;-73
2021/08/27 09:32:20;;;;;;;;;;;15.00;99.90;;;;;;5032324;28;19972;-72
2021/08/27 09:35:19;;;;;;;;;;;15.00;99.90;;;;;;5014619;28;19968;-72
2021/08/27 09:37:52;;;;;;;;;;;15.10;99.90;;;;;;5015087;28;19925;-74
2021/08/27 09:40:25;;;;;;;;;;;15.20;99.90;;;;;;5014656;28;20020;-72
2021/08/27 09:42:59;;;;;;;;;;;15.10;99.90;;;;;;5032152;28;20419;-73
2021/08/27 09:45:38;;;;;;;;;;;15.00;99.90;;;;;;5015242;28;20422;-72
2021/08/27 09:48:12;;;;;;;;;;;15.00;99.90;;;;;;5015265;28;20028;-73
2021/08/27 09:50:45;;;;;;;;;;;14.80;99.90;;;;;;5015306;28;20415;-72
2021/08/27 09:53:17;;;;;;;;;;;14.80;99.90;;;;;;4998657;28;20031;-72
2021/08/27 09:55:58;;;;;;;;;;;14.80;99.90;;;;;;5014436;28;20414;-73
2021/08/27 09:58:29;;;;;;;;;;;14.70;99.90;;;;;;5015089;28;19925;-72
2021/08/27 10:01:03;;;;;;;;;;;14.70;99.90;;;;;;5031957;28;19929;-73
2021/08/27 10:03:34;;;;;;;;;;;14.80;99.90;;;;;;5031878;28;19925;-72
2021/08/27 10:06:06;;;;;;;;;;;14.90;99.90;;;;;;5014064;28;20376;-73
2021/08/27 10:08:38;;;;;;;;;;;15.20;99.90;;;;;;5031853;28;20009;-72
2021/08/27 10:11:23;;;;;;;;;;;15.50;99.90;;;;;;5014232;28;19929;-73
2021/08/27 10:13:55;;;;;;;;;;;15.70;99.90;;;;;;5031863;28;19965;-73
2021/08/27 10:16:22;;;;;;;;;;;15.70;99.90;;;;;;5013993;28;20010;-72
2021/08/27 10:18:54;;;;;;;;;;;15.70;99.90;;;;;;5014095;28;19925;-73
2021/08/27 10:21:20;;;;;;;;;;;15.70;99.90;;;;;;5031658;28;19971;-72
2021/08/27 10:23:52;;;;;;;;;;;15.60;99.90;;;;;;5031675;28;20409;-72
2021/08/27 10:26:21;;;;;;;;;;;15.40;99.90;;;;;;4997503;28;19960;-72
2021/08/27 10:28:53;;;;;;;;;;;15.30;99.90;;;;;;5014932;28;19976;-72
2021/08/27 10:31:39;;;;;;;;;;;15.30;99.90;;;;;;5015200;28;19971;-73
2021/08/27 10:34:05;;;;;;;;;;;15.40;99.90;;;;;;5035774;28;20016;-72
2021/08/27 10:36:38;;;;;;;;;;;15.60;99.90;;;;;;5017641;28;20027;-73
2021/08/27 10:39:05;;;;;;;;;;;15.80;99.90;;;;;;5017969;28;20011;-73
2021/08/27 10:41:39;;;;;;;;;;;15.80;99.90;;;;;;5017807;28;20016;-73
2021/08/27 10:44:12;;;;;;;;;;;16.00;99.90;;;;;;5018386;28;19935;-73
2021/08/27 10:46:44;;;;;;;;;;;16.10;99.90;;;;;;5017639;28;19925;-72
2021/08/27 10:49:39;;;;;;;;;;;16.30;99.90;;;;;;5017666;28;19925;-73
2021/08/27 10:52:32;;;;;;;;;;;16.50;99.90;;;;;;5027634;28;20374;-72
2021/08/27 10:55:04;;;;;;;;;;;16.70;99.90;;;;;;5017561;28;20027;-73
2021/08/27 10:57:43;;;;;;;;;;;16.80;99.90;;;;;;5017389;28;19960;-73
2021/08/27 11:00:35;;;;;;;;;;;16.80;99.90;;;;;;5035138;28;20019;-73
2021/08/27 11:03:02;;;;;;;;;;;16.80;99.90;;;;;;5017443;28;19972;-72
2021/08/27 11:05:30;;;;;;;;;;;16.90;99.90;;;;;;5000836;28;20027;-72
2021/08/27 11:08:05;;;;;;;;;;;17.00;99.90;;;;;;5035046;28;20035;-73
2021/08/27 11:10:38;;;;;;;;;;;17.00;99.90;;;;;;5034985;28;19932;-73
2021/08/27 11:13:11;;;;;;;;;;;17.20;99.90;;;;;;5017256;28;20007;-72
2021/08/27 11:15:38;;;;;;;;;;;17.30;99.90;;;;;;5016868;28;20024;-73
2021/08/27 11:18:16;;;;;;;;;;;17.30;99.90;;;;;;5017957;28;19925;-73
2021/08/27 11:20:43;;;;;;;;;;;17.20;99.90;;;;;;5001071;28;19925;-72
2021/08/27 11:23:16;;;;;;;;;;;17.10;99.90;;;;;;5016876;28;19972;-71
2021/08/27 11:25:59;;;;;;;;;;;16.80;99.90;;;;;;5001079;28;20319;-72
2021/08/27 11:28:26;;;;;;;;;;;16.90;99.90;;;;;;5016749;28;20459;-72
2021/08/27 11:30:59;;;;;;;;;;;16.90;99.90;;;;;;5016911;28;19925;-72
2021/08/27 11:33:38;;;;;;;;;;;17.10;99.90;;;;;;5034783;28;19929;-72
2021/08/27 11:36:05;;;;;;;;;;;17.30;99.90;;;;;;5016498;28;20024;-72
2021/08/27 11:38:36;;;;;;;;;;;17.40;99.90;;;;;;5017884;28;19925;-73
2021/08/27 11:41:03;;;;;;;;;;;17.30;99.90;;;;;;5016736;28;20012;-73
2021/08/27 11:43:36;;;;;;;;;;;17.40;99.90;;;;;;5034177;28;20292;-73
2021/08/27 11:46:12;;;;;;;;;;;17.40;99.90;;;;;;5000885;28;19925;-73
2021/08/27 11:48:48;;;;;;;;;;;17.40;99.90;;;;;;5016443;28;20019;-72
2021/08/27 11:51:23;;;;;;;;;;;17.50;99.90;;;;;;5001205;28;20466;-73
2021/08/27 11:53:49;;;;;;;;;;;17.60;99.90;;;;;;5016892;28;19979;-73
2021/08/27 11:56:23;;;;;;;;;;;17.70;99.90;;;;;;5016540;28;19925;-72
2021/08/27 11:58:54;;;;;;;;;;;17.60;99.90;;;;;;5034132;28;19925;-72
2021/08/27 12:01:27;;;;;;;;;;;17.80;99.90;;;;;;5017018;28;20023;-73
2021/08/27 12:03:54;;;;;;;;;;;17.80;99.90;;;;;;5016524;28;20024;-74
2021/08/27 12:06:27;;;;;;;;;;;17.50;99.90;;;;;;5017014;28;19925;-72
2021/08/27 12:09:10;;;;;;;;;;;17.30;99.90;;;;;;5016437;28;20027;-73
2021/08/27 12:11:42;;;;;;;;;;;17.30;99.90;;;;;;5015910;28;20384;-72
2021/08/27 12:14:08;;;;;;;;;;;17.40;99.90;;;;;;4999805;28;20020;-73
2021/08/27 12:16:35;;;;;;;;;;;17.50;99.90;;;;;;5015866;28;20028;-72
2021/08/27 12:19:07;;;;;;;;;;;17.40;99.90;;;;;;5016043;28;20032;-74
2021/08/27 12:21:38;;;;;;;;;;;17.20;99.90;;;;;;5033731;28;19931;-71
2021/08/27 12:24:12;;;;;;;;;;;17.10;99.90;;;;;;5016617;28;20339;-72
2021/08/27 12:26:44;;;;;;;;;;;17.10;99.90;;;;;;5033334;28;19964;-72
2021/08/27 12:29:17;;;;;;;;;;;17.20;99.90;;;;;;5015720;28;20387;-72
2021/08/27 12:31:51;;;;;;;;;;;17.40;99.90;;;;;;5033925;28;20286;-72
2021/08/27 12:34:18;;;;;;;;;;;17.50;99.90;;;;;;5033402;28;20471;-72
2021/08/27 12:36:45;;;;;;;;;;;17.60;99.90;;;;;;5015442;28;20378;-72
2021/08/27 12:39:14;;;;;;;;;;;17.70;99.90;;;;;;5015770;28;20011;-72
2021/08/27 12:41:40;;;;;;;;;;;17.70;99.90;;;;;;5033191;28;19925;-73
2021/08/27 12:44:14;;;;;;;;;;;17.70;99.90;;;;;;5016538;28;19929;-72
2021/08/27 12:46:47;;;;;;;;;;;17.70;99.90;;;;;;5033186;28;19976;-73
2021/08/27 12:49:20;;;;;;;;;;;17.60;99.90;;;;;;5016418;28;19932;-74
2021/08/27 12:51:53;;;;;;;;;;;17.70;99.90;;;;;;5016747;28;20367;-72
2021/08/27 12:54:22;;;;;;;;;;;17.90;99.90;;;;;;5032459;28;20016;-73
2021/08/27 12:56:58;;;;;;;;;;;17.70;99.90;;;;;;5016298;28;20016;-73
2021/08/27 12:59:25;;;;;;;;;;;17.90;99.90;;;;;;5032893;28;20016;-72
2021/08/27 13:01:57;;;;;;;;;;;17.90;99.90;;;;;;5015216;28;19931;-72
2021/08/27 13:04:42;;;;;;;;;;;17.90;99.90;;;;;;5016033;28;19961;-72
2021/08/27 13:07:21;;;;;;;;;;;17.90;99.90;;;;;;5015102;28;19925;-72
2021/08/27 13:09:47;;;;;;;;;;;17.90;99.90;;;;;;5015185;28;19948;-72
2021/08/27 13:12:31;;;;;;;;;;;18.10;99.90;;;;;;5015224;28;20031;-72
2021/08/27 13:15:03;;;;;;;;;;;17.90;99.90;;;;;;5015874;28;20093;-74
2021/08/27 13:17:30;;;;;;;;;;;17.90;99.90;;;;;;5014905;28;20023;-72
2021/08/27 13:20:01;;;;;;;;;;;18.00;99.90;;;;;;5014726;28;19924;-73
2021/08/27 13:22:31;;;;;;;;;;;18.10;99.90;;;;;;5014980;28;20023;-72
2021/08/27 13:25:08;;;;;;;;;;;17.90;99.90;;;;;;5014730;28;20127;-72
2021/08/27 13:27:41;;;;;;;;;;;17.80;99.90;;;;;;5015544;28;20339;-72
2021/08/27 13:30:10;;;;;;;;;;;17.90;99.90;;;;;;5014942;28;19974;-72
2021/08/27 13:32:50;;;;;;;;;;;18.20;99.90;;;;;;5015577;28;19931;-72
2021/08/27 13:35:17;;;;;;;;;;;18.30;99.90;;;;;;5014563;28;19932;-72
2021/08/27 13:37:45;;;;;;;;;;;18.30;99.90;;;;;;5014537;28;19925;-73
2021/08/27 13:40:14;;;;;;;;;;;18.10;99.90;;;;;;5014582;28;20479;-72
2021/08/27 13:42:45;;;;;;;;;;;18.10;99.90;;;;;;5014496;28;19929;-72
2021/08/27 13:45:17;;;;;;;;;;;18.20;99.90;;;;;;4998589;28;19975;-72
2021/08/27 13:47:45;;;;;;;;;;;18.30;99.90;;;;;;5014443;28;20015;-72
2021/08/27 13:50:17;;;;;;;;;;;18.60;99.90;;;;;;5014495;28;20020;-72
2021/08/27 13:52:48;;;;;;;;;;;18.50;99.90;;;;;;5014453;28;19932;-73
2021/08/27 13:55:21;;;;;;;;;;;18.40;99.90;;;;;;4998024;28;19957;-72
2021/08/27 13:57:53;;;;;;;;;;;18.40;99.90;;;;;;5014329;28;20003;-72
2021/08/27 14:00:20;;;;;;;;;;;18.40;99.90;;;;;;5014274;28;19925;-72
2021/08/27 14:02:51;;;;;;;;;;;18.40;99.90;;;;;;5014352;28;20039;-72
2021/08/27 14:05:23;;;;;;;;;;;18.30;99.90;;;;;;5014703;28;20361;-73
2021/08/27 14:07:55;;;;;;;;;;;18.50;99.90;;;;;;4997922;28;20020;-73
2021/08/27 14:10:21;;;;;;;;;;;18.40;99.90;;;;;;5014654;28;19975;-72
2021/08/27 14:12:48;;;;;;;;;;;18.40;99.90;;;;;;5014107;28;20021;-72
2021/08/27 14:15:15;;;;;;;;;;;18.50;99.90;;;;;;4997740;28;19931;-73
2021/08/27 14:17:47;;;;;;;;;;;18.50;99.90;;;;;;5014975;28;19925;-74
2021/08/27 14:20:13;;;;;;;;;;;18.40;99.90;;;;;;5014063;28;19936;-73
2021/08/27 14:22:45;;;;;;;;;;;18.30;99.90;;;;;;4998387;28;20294;-73
2021/08/27 14:25:13;;;;;;;;;;;18.10;99.90;;;;;;5013726;28;20506;-73
2021/08/27 14:27:40;;;;;;;;;;;17.80;99.90;;;;;;5031483;28;20466;-72
2021/08/27 14:30:09;;;;;;;;;;;17.80;99.90;;;;;;5014183;28;20015;-72
2021/08/27 14:32:37;;;;;;;;;;;17.90;99.90;;;;;;5031769;28;20016;-72
2021/08/27 14:35:12;;;;;;;;;;;17.80;99.90;;;;;;5013686;28;19925;-73
2021/08/27 14:37:40;;;;;;;;;;;17.80;99.90;;;;;;5014138;28;20027;-72
2021/08/27 14:40:08;;;;;;;;;;;18.10;99.90;;;;;;5031580;28;19925;-73
2021/08/27 14:42:40;;;;;;;;;;;18.20;99.90;;;;;;5015050;28;19931;-72
2021/08/27 14:45:12;;;;;;;;;;;18.50;99.90;;;;;;5013704;28;19924;-72